Time;durP1;ratioP1;P1;durP2;ratioP2;P2;SDS_P1;SDS_P2;PMS_P1;PMS_P2;Temp;Humidity;BMP_temperature;BMP_pressure;BME280_temperature;BME280_humidity;BME280_pressure;Samples;Min_cycle;Max_cycle;Signal;HPM_P1;HPM_P2
2022/03/18 00:01:16;;;;;;;65.62;40.92;;;;;;;3.73;64.07;103548.45;1725606;81;21610;-84
2022/03/18 00:03:43;;;;;;;65.00;42.50;;;;;;;3.71;64.05;103547.39;1729803;81;22607;-84
2022/03/18 00:06:16;;;;;;;61.50;39.18;;;;;;;3.72;64.07;103548.30;1731070;81;21090;-84
2022/03/18 00:08:39;;;;;;;72.03;42.58;;;;;;;3.73;64.13;103551.45;1733304;80;21138;-82
2022/03/18 00:11:08;;;;;;;63.73;39.95;;;;;;;3.72;64.16;103559.66;1726460;81;21081;-82
2022/03/18 00:13:35;;;;;;;65.42;41.25;;;;;;;3.70;64.15;103555.99;1720930;81;21078;-82
2022/03/18 00:16:02;;;;;;;70.65;42.73;;;;;;;3.69;64.15;103558.05;1721067;80;22974;-81
2022/03/18 00:18:29;;;;;;;62.38;39.85;;;;;;;3.66;64.19;103558.67;1754216;81;21050;-82
2022/03/18 00:20:56;;;;;;;63.58;40.17;;;;;;;3.66;64.20;103563.89;1726890;82;21475;-82
2022/03/18 00:23:22;;;;;;;64.03;41.23;;;;;;;3.65;64.23;103567.25;1732446;82;21568;-82
2022/03/18 00:25:49;;;;;;;62.62;39.73;;;;;;;3.63;64.18;103564.88;1737159;80;21081;-81
2022/03/18 00:28:16;;;;;;;60.33;40.35;;;;;;;3.61;64.16;103562.51;1750693;80;21767;-81
2022/03/18 00:30:42;;;;;;;63.65;38.90;;;;;;;3.59;64.25;103570.95;1729188;81;21089;-81
2022/03/18 00:33:09;;;;;;;63.23;40.05;;;;;;;3.57;64.21;103578.61;1724053;82;21071;-82
2022/03/18 00:35:35;;;;;;;62.95;39.60;;;;;;;3.56;64.26;103578.45;1733790;80;21073;-82
2022/03/18 00:38:02;;;;;;;60.80;38.67;;;;;;;3.53;64.20;103575.17;1709403;83;21061;-81
2022/03/18 00:40:29;;;;;;;60.63;37.42;;;;;;;3.51;64.31;103576.71;1713575;82;21752;-82
2022/03/18 00:42:56;;;;;;;60.05;37.05;;;;;;;3.49;64.31;103579.52;1706758;82;21045;-82
2022/03/18 00:45:23;;;;;;;55.80;36.53;;;;;;;3.47;64.29;103577.14;1721929;81;21072;-82
2022/03/18 00:53:20;;;;;;;57.93;36.63;;;;;;;3.45;64.37;103578.33;1711646;82;21891;-82
2022/03/18 00:55:46;;;;;;;56.53;35.95;;;;;;;3.46;64.38;103580.53;1717190;82;21103;-81
2022/03/18 00:58:13;;;;;;;59.88;39.08;;;;;;;3.44;64.33;103575.56;1714894;82;21544;-82
2022/03/18 01:00:40;;;;;;;56.48;37.55;;;;;;;3.43;64.30;103580.22;1713408;82;21054;-82
2022/03/18 01:03:07;;;;;;;62.43;37.95;;;;;;;3.41;64.32;103578.75;1713958;82;21688;-83
2022/03/18 01:05:34;;;;;;;61.88;38.78;;;;;;;3.40;64.29;103581.23;1714244;82;21732;-83
2022/03/18 01:08:00;;;;;;;58.78;37.63;;;;;;;3.37;64.26;103584.82;1717422;82;21608;-82
2022/03/18 01:10:27;;;;;;;56.53;36.77;;;;;;;3.34;64.34;103586.75;1729834;82;21074;-82
2022/03/18 01:12:53;;;;;;;60.17;37.13;;;;;;;3.33;64.28;103586.59;1715129;82;21612;-83
2022/03/18 01:15:20;;;;;;;64.72;38.75;;;;;;;3.30;64.36;103582.92;1725374;80;21650;-82
2022/03/18 01:17:47;;;;;;;60.00;39.00;;;;;;;3.28;64.37;103585.76;1716356;81;21750;-82
2022/03/18 01:20:13;;;;;;;58.68;37.85;;;;;;;3.26;64.36;103586.34;1735284;81;21078;-82
2022/03/18 01:22:42;;;;;;;57.27;36.17;;;;;;;3.25;64.38;103585.44;1720680;81;22050;-82
2022/03/18 01:25:09;;;;;;;54.85;35.52;;;;;;;3.21;64.35;103593.71;1743395;80;21086;-82
2022/03/18 01:27:36;;;;;;;64.07;39.38;;;;;;;3.18;64.41;103592.09;1731311;80;21070;-83
2022/03/18 01:30:05;;;;;;;59.77;36.83;;;;;;;3.16;64.45;103591.02;1717873;81;21765;-82
2022/03/18 01:32:33;;;;;;;55.95;37.80;;;;;;;3.14;64.44;103587.34;1734475;81;21177;-81
2022/03/18 01:35:00;;;;;;;57.88;37.78;;;;;;;3.09;64.42;103592.45;1725343;80;21106;-83
2022/03/18 01:37:27;;;;;;;57.50;38.15;;;;;;;3.04;64.46;103594.61;1716718;81;21079;-82
2022/03/18 01:39:53;;;;;;;57.78;37.30;;;;;;;3.01;64.48;103602.48;1741910;80;21035;-83
2022/03/18 01:42:20;;;;;;;60.88;39.15;;;;;;;2.96;64.56;103598.49;1731906;80;21750;-82
2022/03/18 01:44:47;;;;;;;61.05;37.55;;;;;;;2.95;64.71;103604.09;1730422;81;21087;-82
2022/03/18 01:47:14;;;;;;;61.08;36.55;;;;;;;2.95;64.77;103601.48;1755102;80;21667;-82
2022/03/18 01:49:40;;;;;;;61.77;37.20;;;;;;;2.92;64.70;103599.86;1763145;80;21086;-82
2022/03/18 01:52:09;;;;;;;65.00;36.53;;;;;;;2.90;64.80;103600.09;1746624;80;21109;-82
2022/03/18 01:54:45;;;;;;;61.58;37.17;;;;;;;2.88;64.86;103600.31;1727027;81;21758;-82
2022/03/18 01:57:17;;;;;;;58.23;36.25;;;;;;;2.87;64.84;103607.56;1734322;81;21085;-82
2022/03/18 01:59:43;;;;;;;60.15;37.28;;;;;;;2.85;64.81;103610.40;1736292;81;21113;-82
2022/03/18 02:02:10;;;;;;;56.70;36.85;;;;;;;2.85;64.91;103612.64;1752164;81;21161;-83
2022/03/18 02:04:37;;;;;;;67.00;38.48;;;;;;;2.86;64.92;103609.66;1747426;81;21571;-82
2022/03/18 02:07:05;;;;;;;66.92;38.40;;;;;;;2.86;64.96;103611.86;1734540;81;21873;-83
2022/03/18 02:09:31;;;;;;;60.80;37.78;;;;;;;2.87;65.00;103605.91;1742012;81;21054;-84
2022/03/18 02:11:58;;;;;;;66.22;38.35;;;;;;;2.87;64.94;103611.11;1731532;81;21079;-83
2022/03/18 02:14:34;;;;;;;66.07;37.98;;;;;;;2.87;64.89;103609.81;1742874;81;21528;-83
2022/03/18 02:17:03;;;;;;;58.52;37.85;;;;;;;2.84;64.92;103613.39;1727481;81;21074;-83
2022/03/18 02:19:30;;;;;;;57.27;36.00;;;;;;;2.83;64.94;103618.42;1728890;81;22828;-82
2022/03/18 02:21:57;;;;;;;56.25;35.43;;;;;;;2.83;64.98;103615.44;1755455;80;21126;-81
2022/03/18 02:24:24;;;;;;;54.13;35.75;;;;;;;2.82;64.99;103619.21;1742374;81;21042;-81
2022/03/18 02:26:52;;;;;;;52.10;33.73;;;;;;;2.69;64.98;103598.42;1743209;81;21054;-83
2022/03/18 02:29:20;;;;;;;56.60;35.55;;;;;;;2.79;64.96;103625.39;1727691;81;21114;-82
2022/03/18 02:31:46;;;;;;;51.75;35.68;;;;;;;2.76;65.00;103626.36;1738256;81;21767;-82
2022/03/18 02:34:13;;;;;;;59.85;35.48;;;;;;;2.75;65.07;103624.54;1734530;81;21540;-82
2022/03/18 02:36:40;;;;;;;54.20;35.38;;;;;;;2.72;65.03;103618.62;1740136;81;21101;-82
2022/03/18 02:39:06;;;;;;;57.27;34.25;;;;;;;2.71;65.11;103627.20;1727150;81;21064;-83
2022/03/18 02:41:33;;;;;;;56.75;35.08;;;;;;;2.69;65.08;103633.94;1735528;81;21122;-82
2022/03/18 02:44:00;;;;;;;56.73;35.45;;;;;;;2.66;65.08;103638.80;1729329;81;21762;-83
2022/03/18 02:46:27;;;;;;;54.60;34.38;;;;;;;2.63;65.10;103641.11;1738190;80;21092;-81
2022/03/18 02:48:53;;;;;;;58.13;35.38;;;;;;;2.61;65.10;103647.80;1731128;81;21092;-82
2022/03/18 02:51:20;;;;;;;59.05;36.42;;;;;;;2.56;65.05;103645.12;1718103;81;21067;-82
2022/03/18 02:53:47;;;;;;;60.35;34.45;;;;;;;2.51;65.06;103646.84;1718120;82;21086;-82
2022/03/18 02:56:13;;;;;;;52.33;34.00;;;;;;;2.46;65.09;103648.42;1726294;81;21750;-84
2022/03/18 02:58:40;;;;;;;55.67;34.73;;;;;;;2.39;65.13;103650.78;1728817;81;21082;-82
2022/03/18 03:01:07;;;;;;;54.50;34.75;;;;;;;2.36;65.22;103649.15;1753529;80;21104;-83
2022/03/18 03:03:33;;;;;;;57.13;34.60;;;;;;;2.35;65.19;103649.92;1751761;80;21547;-82
2022/03/18 03:08:45;;;;;;;51.35;33.23;;;;;;;2.29;65.22;103655.40;1733680;81;21838;-82
2022/03/18 03:11:11;;;;;;;51.50;32.48;;;;;;;2.23;65.19;103654.73;1730066;81;21050;-82
2022/03/18 03:13:38;;;;;;;57.98;35.90;;;;;;;2.20;65.24;103666.52;1740968;80;21390;-82
2022/03/18 03:16:05;;;;;;;54.18;33.20;;;;;;;2.17;65.25;103664.88;1744013;81;21058;-82
2022/03/18 03:18:32;;;;;;;53.52;31.37;;;;;;;2.16;65.29;103664.31;1741971;81;21117;-82
2022/03/18 03:20:58;;;;;;;52.35;30.95;;;;;;;2.12;65.28;103663.07;1745346;81;21713;-83
2022/03/18 03:23:25;;;;;;;53.28;31.05;;;;;;;2.08;65.24;103668.35;1759597;81;21071;-82
2022/03/18 03:25:55;;;;;;;54.80;31.07;;;;;;;2.03;65.23;103666.02;1747757;81;21078;-83
2022/03/18 03:28:22;;;;;;;52.13;32.33;;;;;;;1.99;65.24;103671.63;1743778;81;21140;-83
2022/03/18 03:30:50;;;;;;;53.02;30.75;;;;;;;1.93;65.24;103678.03;1730722;81;21623;-82
2022/03/18 03:33:17;;;;;;;49.40;30.57;;;;;;;1.90;65.28;103675.09;1749307;81;21767;-83
2022/03/18 03:35:44;;;;;;;50.10;31.82;;;;;;;1.84;65.37;103674.80;1748689;81;21142;-82
2022/03/18 03:38:13;;;;;;;49.27;31.70;;;;;;;1.79;65.36;103679.91;1726756;82;21081;-81
2022/03/18 03:40:40;;;;;;;50.50;31.25;;;;;;;1.75;65.49;103686.05;1726953;82;21188;-82
2022/03/18 03:43:08;;;;;;;49.93;30.48;;;;;;;1.69;65.47;103685.40;1707925;82;36870;-82
2022/03/18 03:45:36;;;;;;;51.05;31.93;;;;;;;1.68;65.56;103688.73;1742963;81;21803;-81
2022/03/18 03:48:04;;;;;;;46.88;27.62;;;;;;;1.65;65.64;103687.48;1738694;81;21296;-80
2022/03/18 03:50:33;;;;;;;55.23;29.72;;;;;;;1.61;65.59;103687.52;1740279;80;21083;-81
2022/03/18 03:53:02;;;;;;;47.33;29.20;;;;;;;1.59;65.64;103687.73;1740643;81;21026;-81
2022/03/18 03:55:29;;;;;;;50.23;31.27;;;;;;;1.56;65.78;103692.62;1749320;81;21543;-81
2022/03/18 03:57:55;;;;;;;48.65;29.02;;;;;;;1.55;65.71;103695.95;1751880;81;21779;-81
2022/03/18 04:00:22;;;;;;;53.28;30.10;;;;;;;1.54;65.72;103698.94;1749677;81;21062;-81
2022/03/18 04:02:49;;;;;;;50.35;30.75;;;;;;;1.53;65.71;103702.66;1745995;80;21106;-81
2022/03/18 04:05:15;;;;;;;46.53;30.40;;;;;;;1.51;65.71;103706.77;1742107;81;21547;-80
2022/03/18 04:07:48;;;;;;;50.35;30.32;;;;;;;1.53;65.75;103711.74;1742868;81;21062;-81
2022/03/18 04:10:13;;;;;;;51.48;30.37;;;;;;;1.53;65.72;103713.95;1745374;80;22633;-81
2022/03/18 04:12:40;;;;;;;46.65;27.37;;;;;;;1.52;65.65;103712.48;1742038;81;21019;-81
2022/03/18 04:15:10;;;;;;;46.58;28.70;;;;;;;1.50;65.60;103714.94;1738159;81;21552;-81
2022/03/18 04:17:41;;;;;;;45.67;27.00;;;;;;;1.48;65.62;103719.39;1745693;81;21188;-81
2022/03/18 04:20:09;;;;;;;59.00;32.63;;;;;;;1.46;65.62;103720.91;1736142;81;21121;-82
2022/03/18 04:22:36;;;;;;;105.90;53.33;;;;;;;1.43;65.62;103721.89;1744455;81;21748;-80
2022/03/18 04:25:04;;;;;;;91.97;45.65;;;;;;;1.43;65.62;103726.70;1714324;81;21023;-80
2022/03/18 04:27:31;;;;;;;69.35;39.30;;;;;;;1.40;65.57;103734.13;1720124;81;21062;-80
2022/03/18 04:29:58;;;;;;;64.50;36.05;;;;;;;1.35;65.61;103731.39;1737683;81;21065;-81
2022/03/18 04:32:24;;;;;;;60.95;34.27;;;;;;;1.34;65.67;103734.38;1733485;80;21082;-80
2022/03/18 04:34:51;;;;;;;63.90;35.50;;;;;;;1.34;65.73;103744.77;1730674;81;21736;-80
2022/03/18 04:37:17;;;;;;;68.55;39.35;;;;;;;1.34;65.76;103744.77;1708431;81;21086;-80
2022/03/18 04:39:44;;;;;;;72.92;39.83;;;;;;;1.34;65.69;103740.87;1734281;80;22115;-82
2022/03/18 04:42:11;;;;;;;61.63;36.77;;;;;;;1.30;65.64;103749.07;1746320;81;21039;-81
2022/03/18 04:44:37;;;;;;;68.67;37.55;;;;;;;1.30;65.71;103746.86;1747612;82;21089;-81
2022/03/18 04:47:04;;;;;;;71.97;37.90;;;;;;;1.32;65.71;103752.75;1744294;81;21921;-82
2022/03/18 04:49:34;;;;;;;66.70;35.68;;;;;;;1.36;65.75;103751.42;1728562;81;21110;-81
2022/03/18 04:52:00;;;;;;;56.65;31.75;;;;;;;1.39;65.73;103755.67;1740138;81;21137;-82
2022/03/18 04:54:27;;;;;;;57.00;33.30;;;;;;;1.43;65.68;103758.23;1732676;81;21076;-86
2022/03/18 04:59:40;;;;;;;63.38;34.00;;;;;;;1.47;65.58;103757.80;1723408;81;21226;-82
2022/03/18 05:02:07;;;;;;;66.05;36.90;;;;;;;1.48;65.42;103757.98;1730299;81;21086;-82
2022/03/18 05:04:34;;;;;;;62.13;34.03;;;;;;;1.51;65.49;103763.48;1728698;81;21090;-82
2022/03/18 05:07:01;;;;;;;63.40;37.73;;;;;;;1.55;65.40;103773.45;1724163;81;21546;-82
2022/03/18 05:09:27;;;;;;;69.60;37.80;;;;;;;1.59;65.41;103771.20;1720268;81;21047;-82
2022/03/18 05:11:54;;;;;;;66.47;37.33;;;;;;;1.61;65.35;103770.61;1722470;81;23019;-82
2022/03/18 05:14:22;;;;;;;65.97;36.68;;;;;;;1.65;65.31;103771.52;1724125;81;22489;-82
2022/03/18 05:16:49;;;;;;;71.02;37.55;;;;;;;1.72;65.29;103772.70;1732831;81;21040;-81
2022/03/18 05:19:15;;;;;;;69.45;37.90;;;;;;;1.83;65.33;103773.88;1728280;81;21063;-85
2022/03/18 05:21:42;;;;;;;69.60;39.08;;;;;;;1.94;65.20;103782.47;1723577;81;21062;-79
2022/03/18 05:24:09;;;;;;;72.27;36.65;;;;;;;2.02;65.02;103788.48;1730399;81;21679;-79
2022/03/18 05:26:37;;;;;;;82.00;41.35;;;;;;;2.09;64.95;103785.80;1719974;81;21109;-79
2022/03/18 05:29:03;;;;;;;65.97;36.23;;;;;;;2.15;64.75;103785.55;1721626;81;21020;-80
2022/03/18 05:31:35;;;;;;;66.02;36.48;;;;;;;2.19;64.66;103785.50;1727755;81;21083;-80
2022/03/18 05:34:04;;;;;;;64.80;35.08;;;;;;;2.24;64.65;103782.64;1734118;81;21054;-77
2022/03/18 05:36:31;;;;;;;58.00;33.28;;;;;;;2.30;64.39;103789.78;1724917;81;22576;-78
2022/03/18 05:38:58;;;;;;;56.58;32.35;;;;;;;2.31;64.23;103789.05;1716996;81;21126;-80
2022/03/18 05:41:24;;;;;;;58.92;31.45;;;;;;;2.36;64.17;103790.82;1719318;81;21064;-79
2022/03/18 05:43:51;;;;;;;58.58;32.25;;;;;;;2.45;64.25;103788.30;1724243;81;21711;-79
2022/03/18 05:46:18;;;;;;;55.75;32.33;;;;;;;2.52;64.12;103796.91;1726814;81;21091;-78
2022/03/18 05:48:44;;;;;;;53.38;33.15;;;;;;;2.62;64.08;103799.19;1720132;81;22007;-79
2022/03/18 05:51:12;;;;;;;60.92;35.80;;;;;;;2.77;64.23;103801.20;1736245;81;21062;-79
2022/03/18 05:53:39;;;;;;;62.88;37.25;;;;;;;2.88;63.88;103802.86;1727934;81;21043;-77
2022/03/18 05:58:51;;;;;;;59.98;35.85;;;;;;;3.08;63.54;103810.16;1727489;81;21505;-79
2022/03/18 06:01:17;;;;;;;57.53;33.70;;;;;;;3.21;63.54;103815.33;1730111;81;21841;-80
2022/03/18 06:03:44;;;;;;;52.60;31.05;;;;;;;3.29;63.36;103809.25;1741118;81;21019;-83
2022/03/18 06:06:10;;;;;;;49.63;29.98;;;;;;;3.37;63.23;103813.56;1723852;81;21074;-86
2022/03/18 06:14:07;;;;;;;55.50;30.35;;;;;;;3.75;62.88;103822.17;1731251;81;22167;-87
2022/03/18 06:16:33;;;;;;;56.30;30.77;;;;;;;3.91;62.83;103820.36;1728894;81;21094;-84
2022/03/18 06:19:00;;;;;;;40.10;22.93;;;;;;;4.03;62.45;103824.19;1733250;81;21146;-83
2022/03/18 06:21:28;;;;;;;35.10;20.45;;;;;;;4.12;62.01;103829.81;1729497;80;21612;-84
2022/03/18 06:23:55;;;;;;;30.90;19.17;;;;;;;4.21;61.77;103834.66;1725659;81;21078;-86
2022/03/18 06:26:22;;;;;;;33.15;19.85;;;;;;;4.33;61.47;103841.47;1733953;81;22495;-84
2022/03/18 06:28:49;;;;;;;36.13;21.48;;;;;;;4.46;61.33;103839.31;1739530;81;21031;-85
2022/03/18 06:31:18;;;;;;;38.65;22.58;;;;;;;4.54;61.16;103836.16;1736708;80;21084;-85
2022/03/18 06:33:46;;;;;;;36.65;23.87;;;;;;;4.76;60.96;103841.42;1703260;82;21130;-84
2022/03/18 06:36:13;;;;;;;42.05;21.80;;;;;;;4.96;60.75;103854.22;1729929;82;21082;-85
2022/03/18 06:38:39;;;;;;;34.98;21.60;;;;;;;5.09;60.43;103853.69;1733349;81;21744;-85
2022/03/18 06:41:06;;;;;;;34.95;20.23;;;;;;;5.24;60.13;103853.50;1726640;81;21046;-84
2022/03/18 06:43:33;;;;;;;31.40;20.23;;;;;;;5.40;59.92;103857.58;1741344;81;21070;-85
2022/03/18 06:45:59;;;;;;;36.73;22.20;;;;;;;5.49;59.35;103861.47;1735828;81;21576;-85
2022/03/18 06:48:26;;;;;;;33.92;20.85;;;;;;;5.52;58.96;103858.77;1735035;81;21075;-86
2022/03/18 06:50:53;;;;;;;36.68;20.50;;;;;;;5.58;58.76;103864.97;1751863;80;22482;-86
2022/03/18 06:53:19;;;;;;;30.05;19.40;;;;;;;5.69;58.76;103868.22;1738773;81;21075;-86
2022/03/18 06:55:46;;;;;;;38.23;21.93;;;;;;;5.83;58.56;103866.89;1738386;80;21894;-87
2022/03/18 06:58:13;;;;;;;34.18;19.48;;;;;;;5.92;58.22;103861.22;1744157;81;21325;-87
2022/03/18 07:00:39;;;;;;;40.00;22.35;;;;;;;6.01;57.95;103867.36;1730265;81;21083;-87
2022/03/18 07:03:06;;;;;;;31.48;18.75;;;;;;;6.12;57.85;103860.52;1734538;81;21585;-86
2022/03/18 07:05:33;;;;;;;34.83;18.07;;;;;;;6.26;57.62;103862.19;1727311;81;21865;-86
2022/03/18 07:08:00;;;;;;;35.17;18.67;;;;;;;6.37;57.39;103859.77;1729025;81;21066;-86
2022/03/18 07:10:26;;;;;;;35.80;19.42;;;;;;;6.46;57.16;103866.25;1745231;81;21132;-86
2022/03/18 07:12:53;;;;;;;27.42;18.62;;;;;;;6.52;56.89;103868.51;1734832;81;20999;-86
2022/03/18 07:15:19;;;;;;;37.42;18.35;;;;;;;6.56;56.57;103878.08;1722660;81;21732;-86
2022/03/18 07:17:55;;;;;;;30.60;19.32;;;;;;;6.54;56.35;103872.19;1737272;81;21103;-88
2022/03/18 07:20:25;;;;;;;34.25;20.30;;;;;;;6.55;56.12;103874.95;1733771;82;21050;-89
2022/03/18 07:25:29;;;;;;;50.23;28.23;;;;;;;6.59;55.78;103873.53;1810824;78;23431;-89
2022/03/18 07:27:57;;;;;;;36.17;23.98;;;;;;;6.55;55.62;103880.55;1796630;79;21058;-88
2022/03/18 07:30:23;;;;;;;38.45;24.60;;;;;;;6.59;55.55;103880.98;1793101;79;21761;-83
2022/03/18 07:32:50;;;;;;;56.65;33.53;;;;;;;6.60;55.28;103881.50;1778881;79;21098;-86
2022/03/18 07:35:17;;;;;;;62.17;33.80;;;;;;;6.66;55.17;103883.75;1788878;79;21050;-86
2022/03/18 07:37:43;;;;;;;59.90;35.40;;;;;;;6.72;55.06;103884.70;1783625;79;21089;-85
2022/03/18 07:40:11;;;;;;;49.95;29.72;;;;;;;6.74;54.80;103881.47;1765876;80;21275;-85
2022/03/18 07:42:52;;;;;;;43.38;26.27;;;;;;;6.77;54.56;103876.48;1780536;80;21807;-85
2022/03/18 07:45:28;;;;;;;34.53;21.82;;;;;;;6.84;54.46;103880.59;1779478;80;21014;-86
2022/03/18 07:48:00;;;;;;;31.00;19.60;;;;;;;6.91;54.06;103880.77;1759165;80;21070;-85
2022/03/18 07:50:28;;;;;;;26.40;17.05;;;;;;;6.90;53.81;103878.52;1761427;80;21034;-85
2022/03/18 07:52:59;;;;;;;22.58;15.75;;;;;;;6.95;53.80;103878.55;1775666;80;21015;-85
2022/03/18 07:55:27;;;;;;;23.30;15.70;;;;;;;7.05;53.68;103880.69;1733168;81;21778;-85
2022/03/18 07:57:54;;;;;;;21.15;14.87;;;;;;;7.14;53.63;103875.88;1762966;80;21122;-84
2022/03/18 08:00:21;;;;;;;21.82;14.20;;;;;;;7.27;53.18;103879.20;1770873;80;21069;-85
2022/03/18 08:02:50;;;;;;;25.88;15.30;;;;;;;7.30;52.99;103877.23;1775296;80;21090;-86
2022/03/18 08:05:16;;;;;;;24.45;14.47;;;;;;;7.40;52.93;103883.43;1782327;80;21129;-85
2022/03/18 08:07:44;;;;;;;20.25;13.78;;;;;;;7.53;52.87;103885.44;1762480;80;21680;-85
2022/03/18 08:10:11;;;;;;;29.45;15.13;;;;;;;7.63;52.49;103881.00;1777917;80;21058;-85
2022/03/18 08:12:38;;;;;;;26.25;13.90;;;;;;;7.70;52.32;103888.62;1760903;80;21076;-86
2022/03/18 08:15:10;;;;;;;23.42;14.70;;;;;;;7.78;52.36;103887.16;1758346;80;21071;-85
2022/03/18 08:17:38;;;;;;;23.83;16.37;;;;;;;7.89;51.97;103886.80;1765804;80;21118;-85
2022/03/18 08:20:12;;;;;;;22.27;15.32;;;;;;;7.91;51.69;103894.80;1782259;80;21767;-85
2022/03/18 08:22:41;;;;;;;24.80;15.23;;;;;;;8.00;51.77;103896.00;1759912;80;28849;-85
2022/03/18 08:25:08;;;;;;;25.85;15.15;;;;;;;8.11;51.60;103895.21;1767533;80;21013;-85
2022/03/18 08:27:35;;;;;;;23.10;14.38;;;;;;;8.23;51.53;103891.39;1758744;81;21054;-85
2022/03/18 08:30:02;;;;;;;19.25;13.30;;;;;;;8.36;51.35;103895.58;1756964;80;21708;-85
2022/03/18 08:32:29;;;;;;;22.87;14.40;;;;;;;8.45;51.04;103899.42;1731023;82;21780;-86
2022/03/18 08:34:56;;;;;;;22.73;14.78;;;;;;;8.52;50.72;103899.12;1717258;82;21094;-85
2022/03/18 08:38:07;;;;;;;23.30;14.23;;;;;;;8.55;50.57;103897.67;1730357;81;21100;-85
2022/03/18 08:39:57;;;;;;;20.08;13.70;;;;;;;8.61;50.45;103893.33;1699316;82;21040;-86
2022/03/18 08:42:23;;;;;;;19.80;13.78;;;;;;;8.73;50.19;103901.33;1750037;81;21072;-86
2022/03/18 08:44:50;;;;;;;23.47;14.38;;;;;;;8.83;50.06;103903.00;1737292;81;22408;-86
2022/03/18 08:47:17;;;;;;;22.87;14.28;;;;;;;8.94;50.02;103895.20;1763821;81;21110;-86
2022/03/18 08:49:43;;;;;;;23.50;15.63;;;;;;;9.10;49.65;103905.65;1752718;81;21055;-86
2022/03/18 08:52:10;;;;;;;22.05;15.88;;;;;;;9.21;49.66;103899.96;1753513;81;20968;-85
2022/03/18 08:54:37;;;;;;;23.77;14.40;;;;;;;9.36;49.29;103903.82;1757768;81;21050;-86
2022/03/18 08:57:04;;;;;;;20.48;13.20;;;;;;;9.46;49.19;103898.52;1722524;83;21830;-85
2022/03/18 08:59:31;;;;;;;22.58;14.43;;;;;;;9.60;49.10;103906.59;1758350;81;21054;-85
2022/03/18 09:01:58;;;;;;;23.75;15.78;;;;;;;9.66;48.51;103902.72;1758030;80;21130;-85
2022/03/18 09:04:24;;;;;;;19.32;14.10;;;;;;;9.64;48.31;103896.42;1763213;80;21126;-84
2022/03/18 09:06:51;;;;;;;23.92;14.15;;;;;;;9.66;48.23;103897.87;1732213;81;21081;-84
2022/03/18 09:09:18;;;;;;;25.80;13.35;;;;;;;9.77;48.20;103895.69;1730679;81;22575;-85
2022/03/18 09:11:44;;;;;;;22.45;12.90;;;;;;;9.86;47.96;103903.39;1724743;81;21109;-85
2022/03/18 09:14:12;;;;;;;20.60;12.78;;;;;;;9.91;47.43;103904.69;1744783;81;21125;-85
2022/03/18 09:16:38;;;;;;;18.65;13.30;;;;;;;9.99;47.23;103907.50;1739070;81;21071;-85
2022/03/18 09:19:05;;;;;;;21.45;13.60;;;;;;;10.05;46.99;103906.66;1767317;81;21571;-84
2022/03/18 09:21:32;;;;;;;19.90;13.83;;;;;;;10.06;46.92;103907.56;1740590;81;21745;-85
2022/03/18 09:24:01;;;;;;;19.35;12.45;;;;;;;10.11;46.82;103904.48;1744865;80;21075;-85
2022/03/18 09:26:27;;;;;;;19.52;12.78;;;;;;;10.20;46.70;103908.24;1714487;81;21102;-85
2022/03/18 09:28:54;;;;;;;16.65;12.28;;;;;;;10.29;46.37;103910.68;1736219;82;21034;-85
2022/03/18 09:31:21;;;;;;;21.15;13.22;;;;;;;10.30;46.21;103907.23;1715464;80;21097;-81
2022/03/18 09:33:48;;;;;;;19.07;13.35;;;;;;;10.34;46.35;103921.17;1715926;81;22404;-81
2022/03/18 09:36:18;;;;;;;22.73;13.30;;;;;;;10.36;46.17;103922.61;1712930;81;21074;-81
2022/03/18 09:38:43;;;;;;;19.80;12.65;;;;;;;10.36;46.01;103922.61;1703428;81;21130;-80
2022/03/18 09:41:10;;;;;;;23.55;12.82;;;;;;;10.38;45.96;103924.96;1709428;83;21087;-83
2022/03/18 09:43:38;;;;;;;20.43;12.82;;;;;;;10.37;45.86;103917.87;1734326;82;21572;-80
2022/03/18 09:46:08;;;;;;;21.97;13.35;;;;;;;10.39;45.68;103925.49;1716983;82;21807;-79
2022/03/18 09:48:35;;;;;;;24.72;12.93;;;;;;;10.42;45.65;103925.33;1725216;82;21086;-80
2022/03/18 09:51:02;;;;;;;18.07;12.43;;;;;;;10.49;45.41;103924.06;1749631;81;21054;-79
2022/03/18 09:53:29;;;;;;;20.75;12.78;;;;;;;10.50;45.27;103928.55;1721625;82;21078;-79
2022/03/18 09:55:55;;;;;;;17.30;12.13;;;;;;;10.51;45.08;103925.13;1689713;83;21589;-80
2022/03/18 09:58:22;;;;;;;19.70;12.60;;;;;;;10.50;44.64;103926.82;1711205;82;21751;-79
2022/03/18 10:01:08;;;;;;;19.02;12.90;;;;;;;10.46;44.44;103926.08;1715273;82;21086;-79
2022/03/18 10:03:21;;;;;;;21.40;12.55;;;;;;;10.48;44.32;103930.15;1713077;82;21544;-79
2022/03/18 10:05:59;;;;;;;21.30;12.82;;;;;;;10.50;44.41;103933.41;1734400;82;21117;-79
2022/03/18 10:08:30;;;;;;;23.83;12.93;;;;;;;10.60;44.41;103937.65;1721563;83;21547;-79
2022/03/18 10:10:57;;;;;;;19.17;12.95;;;;;;;10.65;44.41;103936.70;1696331;82;21589;-80
2022/03/18 10:13:23;;;;;;;21.15;12.95;;;;;;;10.73;44.42;103939.50;1722161;82;21753;-79
2022/03/18 10:15:52;;;;;;;19.48;12.95;;;;;;;10.77;44.25;103940.24;1733861;82;22361;-79
2022/03/18 10:18:21;;;;;;;17.60;11.97;;;;;;;10.73;44.19;103919.74;1737022;82;21063;-79
2022/03/18 10:20:50;;;;;;;17.77;12.95;;;;;;;10.91;44.10;103943.03;1722688;82;21149;-79
2022/03/18 10:23:23;;;;;;;19.45;12.05;;;;;;;10.96;43.74;103945.58;1723051;80;21809;-78
2022/03/18 10:25:55;;;;;;;20.15;13.30;;;;;;;10.97;43.54;103937.80;1722709;82;21022;-78
2022/03/18 10:28:47;;;;;;;21.65;12.73;;;;;;;10.99;43.49;103940.55;1790743;79;21588;-78
2022/03/18 10:31:21;;;;;;;22.73;14.05;;;;;;;11.06;43.53;103949.02;1782351;79;21561;-79
2022/03/18 10:39:45;;;;;;;20.37;13.10;;;;;;;11.15;43.38;103939.95;1771446;79;21084;-79
2022/03/18 10:42:14;;;;;;;18.50;12.90;;;;;;;11.15;43.20;103939.57;1774606;79;21583;-79
2022/03/18 10:44:58;;;;;;;26.85;17.70;;;;;;;11.13;43.04;103934.59;1742396;79;21772;-79
2022/03/18 10:47:35;;;;;;;38.67;28.75;;;;;;;11.15;43.03;103936.00;1779370;79;21073;-79
2022/03/18 10:50:21;;;;;;;17.98;14.25;;;;;;;11.19;42.48;103934.13;1771809;79;21812;-79
2022/03/18 10:52:59;;;;;;;14.83;11.08;;;;;;;11.18;42.19;103933.19;1767803;79;21368;-79
2022/03/18 10:55:37;;;;;;;18.42;12.07;;;;;;;11.19;41.94;103928.44;1765906;79;21300;-79
2022/03/18 10:58:15;;;;;;;17.92;11.93;;;;;;;11.22;41.51;103936.97;1766898;79;21643;-79
2022/03/18 11:00:48;;;;;;;17.25;12.30;;;;;;;11.21;41.55;103937.38;1786651;79;21619;-79
2022/03/18 11:03:15;;;;;;;17.60;12.63;;;;;;;11.26;41.53;103933.37;1785946;79;22829;-79
2022/03/18 11:05:47;;;;;;;16.40;11.03;;;;;;;11.27;41.55;103930.32;1784512;79;21138;-79
2022/03/18 11:08:17;;;;;;;16.80;11.73;;;;;;;11.33;41.31;103933.80;1780584;79;21519;-79
2022/03/18 11:14:00;;;;;;;17.48;11.65;;;;;;;11.37;41.09;103943.77;1776072;79;21070;-79
2022/03/18 11:16:28;;;;;;;14.20;10.50;;;;;;;11.39;40.77;103948.37;1761766;79;21674;-79
2022/03/18 11:18:55;;;;;;;13.72;10.80;;;;;;;11.40;40.60;103940.95;1793803;79;21555;-79
2022/03/18 11:21:21;;;;;;;18.15;12.18;;;;;;;11.40;40.74;103940.05;1796534;79;21562;-79
2022/03/18 11:23:49;;;;;;;19.73;12.37;;;;;;;11.43;40.67;103937.23;1770944;79;21042;-78
2022/03/18 11:26:18;;;;;;;16.60;13.05;;;;;;;11.50;40.83;103935.94;1760837;81;21149;-79
2022/03/18 11:28:45;;;;;;;16.62;11.60;;;;;;;11.55;40.68;103939.83;1747438;81;21822;-79
2022/03/18 11:31:19;;;;;;;19.15;12.45;;;;;;;11.55;40.37;103937.19;1754609;81;21596;-78
2022/03/18 11:34:12;;;;;;;20.35;11.73;;;;;;;11.54;40.52;103936.66;1748262;81;21056;-78
2022/03/18 11:37:05;;;;;;;19.77;11.53;;;;;;;11.59;40.57;103933.05;1728010;81;21368;-79
2022/03/18 11:39:32;;;;;;;16.90;11.55;;;;;;;11.62;40.36;103939.47;1755796;81;21078;-77
2022/03/18 11:42:12;;;;;;;16.32;11.25;;;;;;;11.64;40.40;103935.22;1759446;81;21746;-78
2022/03/18 11:44:59;;;;;;;16.73;11.00;;;;;;;11.71;40.30;103941.83;1763455;81;21091;-78
2022/03/18 11:47:32;;;;;;;17.00;10.70;;;;;;;11.72;40.00;103937.50;1763727;81;21051;-79
2022/03/18 11:49:58;;;;;;;16.90;10.90;;;;;;;11.73;39.80;103936.67;1759339;81;21062;-78